Pahrump, Nevada Weather observations

Data are for observation ending at time listed.
 Day   Time    Ave.   Ave.  Ave.  Vector   Max.   Stn.    Total    Solar   Ave.  
  of    of     Air    Rel.  Wind   Wind    Wind   Baro.  Precip.   Rad.    Soil  
Year   Day     Temp.  Hum.  Speed  Dir.    Gust   Pres.                    Temp. 
2026   (PST)    F      %     mph   deg.    mph     mb.     in.     W/m2     F   
------------------------------------------------------------------------------
 127   18:10   90.2    10    0.1   355      0.1   920.0    0.00      88    86.9
 127   18:20   89.5    10    0.6   355      2.1   919.9    0.00      61    86.8
 127   18:30   88.6    10    1.5   355      4.5   920.0    0.00      35    86.6
 127   18:40   86.4    12    1.3   198      4.0   919.9    0.00      11    86.5
 127   18:50   85.7    12    2.1   196      4.7   919.7    0.00       3    86.3
 127   19:00   85.5    12    2.8   181      5.8   919.6    0.00       1    86.0
 127   19:10   85.1    12    3.0   182      5.8   919.6    0.00       0    85.9
 127   19:20   84.7    12    2.6   175      4.8   919.6    0.00       0    85.6
 127   19:30   84.1    12    2.3   176      5.2   919.5    0.00       0    85.4
 127   19:40   83.7    12    2.8   148      4.2   919.5    0.00       0    85.1
 127   19:50   82.5    12    3.9   142      5.0   919.5    0.00       0    84.9
 127   20:00   81.6    13    4.3   139      5.9   919.5    0.00       0    84.7
 127   20:10   80.7    13    3.9   121      5.5   919.5    0.00       0    84.4
 127   20:20   80.1    13    5.7   112      8.3   919.6    0.00       0    84.2
 127   20:30   79.8    13    6.1   100      8.6   919.7    0.00       0    84.0
 127   20:40   79.6    13    6.5   104     11.0   919.8    0.00       0    83.8
 127   20:50   79.6    12    7.6   100     11.2   919.7    0.00       0    83.6
 127   21:00   79.2    13    7.4   102     10.0   919.7    0.00       0    83.4
 127   21:10   79.2    12    8.7   100     11.8   919.7    0.00       0    83.2
 127   21:20   78.9    13    9.3    95     12.1   919.7    0.00       0    83.0
 127   21:30   78.8    13    9.7    95     13.0   919.7    0.00       0    82.9
 127   21:40   78.8    13    5.8    98     12.4   919.7    0.00       0    82.7
 127   21:50   78.7    12    7.9    95     13.6   919.7    0.00       0    82.6
 127   22:00   78.4    12    4.1    93     13.7   919.7    0.00       0    82.5
 127   22:10   78.2    12    7.4    95     13.4   919.7    0.00       0    82.3
 127   22:20   78.2    13    9.8    97     13.6   919.7    0.00       0    82.2
 127   22:30   77.5    13    4.4   102     11.4   919.9    0.00       0    82.1
 127   22:40   75.9    15    0.0   221      0.1   920.1    0.00       0    81.9
 127   22:50   74.4    16    0.0   210      0.1   920.0    0.00       0    81.8
 127   23:00   73.7    16    0.1   181      1.3   919.8    0.00       0    81.7
 127   23:10   72.8    16    0.0     0      0.0   919.7    0.00       0    81.5
 127   23:20   73.0    16    0.2   164      1.0   919.5    0.00       0    81.4
 127   23:30   72.7    17    1.1   123      5.6   919.5    0.00       0    81.2
 127   23:40   74.3    15    3.7   110      5.6   919.5    0.00       0    81.1
 127   23:50   74.0    16    3.3   226      6.2   919.6    0.00       0    81.0
 128    0:00   69.0    20    1.7   285      6.4   919.7    0.00       0    80.8
 128    0:10   67.9    21    0.0   285      0.1   919.6    0.00       0    80.6
 128    0:20   68.0    21    0.4   262      4.1   919.5    0.00       0    80.5
 128    0:30   68.1    21    0.9   289      3.0   919.3    0.00       0    80.3
 128    0:40   67.5    21    0.6   267      2.0   919.2    0.00       0    80.2
 128    0:50   67.2    21    0.6   233      1.5   919.2    0.00       0    80.0
 128    1:00   67.3    20    1.0   104      2.4   919.0    0.00       0    79.8
 128    1:10   67.7    20    1.3   144      2.1   918.8    0.00       0    79.6
 128    1:20   67.4    20    0.4   150      1.9   918.7    0.00       0    79.5
 128    1:30   67.1    20    0.0   240      0.1   918.7    0.00       0    79.3
 128    1:40   66.5    22    0.1   297      0.1   918.8    0.00       0    79.2
 128    1:50   66.0    22    0.0   280      0.1   918.7    0.00       0    79.0
 128    2:00   66.6    20    0.0     0      0.0   918.7    0.00       0    78.8
 128    2:10   67.2    19    0.0     0      0.0   918.6    0.00       0    78.7
 128    2:20   66.0    22    0.0   263      0.1   918.7    0.00       0    78.5
 128    2:30   64.0    24    0.4   251      3.6   918.7    0.00       0    78.4
 128    2:40   63.3    24    0.0   249      0.1   918.7    0.00       0    78.3
 128    2:50   63.6    24    0.0   242      0.1   918.7    0.00       0    78.1
 128    3:00   64.4    22    0.0     0      0.0   918.7    0.00       0    78.0
 128    3:10   64.5    22    0.0   201      0.1   918.6    0.00       0    77.8
 128    3:20   64.4    22    0.0     0      0.0   918.6    0.00       0    77.7
 128    3:30   64.5    21    0.0   208      0.1   918.7    0.00       0    77.5
 128    3:40   64.5    22    0.0   202      0.1   918.7    0.00       0    77.4
 128    3:50   64.0    22    0.0     0      0.0   918.7    0.00       0    77.3
 128    4:00   63.6    22    0.0   227      0.1   918.7    0.00       0    77.1
 128    4:10   63.6    22    0.0   188      0.1   918.7    0.00       0    77.0
 128    4:20   62.7    24    0.1   312      0.1   918.7    0.00       0    76.9
 128    4:30   62.1    24    0.0   346      0.1   918.7    0.00       0    76.7
 128    4:40   61.6    23    0.0   350      0.1   918.6    0.00       1    76.6
 128    4:50   61.6    24    0.0   291      0.6   918.7    0.00       4    76.5
 128    5:00   60.0    26    0.1   299      0.1   918.8    0.00       8    76.4
 128    5:10   59.8    25    0.0     7      0.1   918.8    0.00      13    76.2
 128    5:20   61.3    24    0.0   327      1.5   918.9    0.00      39    76.1
 128    5:30   64.3    21    0.0   335      0.1   919.0    0.00      71    76.0
 128    5:40   66.6    20    0.2   308      1.8   919.2    0.00      97    75.9
 128    5:50   65.0    24    0.1   286      0.1   919.4    0.00     124    75.8
 128    6:00   65.7    22    0.0   282      0.1   919.6    0.00     153    75.6
 128    6:10   67.6    22    0.1   344      0.1   919.8    0.00     183    75.5
 128    6:20   67.9    21    0.1   314      0.1   920.1    0.00     214    75.5
 128    6:30   68.2    22    0.5   355      2.2   920.3    0.00     247    75.4
 128    6:40   68.5    22    1.3   355      4.0   920.5    0.00     281    75.3
 128    6:50   70.7    19    0.8   355      3.7   920.6    0.00     314    75.3
 128    7:00   72.4    18    0.1   355      0.1   920.9    0.00     348    75.2
 128    7:10   73.5    18    0.9   355      3.8   921.1    0.00     382    75.2
 128    7:20   74.0    18    1.8   355      4.2   921.3    0.00     416    75.2
 128    7:30   74.6    19    2.3   355      5.3   921.4    0.00     449    75.2
 128    7:40   75.4    18    1.3   317      4.5   921.6    0.00     482    75.2
 128    7:50   76.0    18    1.6   353      3.7   921.8    0.00     515    75.2
 128    8:00   76.8    17    2.0   332      3.6   921.8    0.00     548    75.2
 128    8:10   77.8    16    0.8   176      3.2   922.0    0.00     580    75.2
 128    8:20   79.4    16    0.0   273      0.1   922.2    0.00     610    75.3
 128    8:30   79.9    15    0.0   302      0.1   922.4    0.00     641    75.4
 128    8:40   79.2    15    1.1   355      4.4   922.6    0.00     669    75.7
 128    8:50   80.5    15    2.0   283      5.0   922.7    0.00     697    76.0
 128    9:00   81.8    14    1.5   315      4.7   922.7    0.00     726    76.4
 128    9:10   82.6    14    3.0   307      6.2   922.8    0.00     752    76.7
 128    9:20   82.8    14    3.7   315      6.0   922.9    0.00     776    77.1
 128    9:30   83.9    13    2.6   308      5.5   923.0    0.00     801    77.5
 128    9:40   84.8    13    1.2   276      3.7   923.1    0.00     824    77.8
 128    9:50   85.4    13    2.4   332      6.0   923.1    0.00     844    78.1
 128   10:00   85.0    13    1.9   309      5.0   923.1    0.00     863    78.5
 128   10:10   87.4    12    2.0   343      6.9   923.2    0.00     880    79.0
 128   10:20   87.3    13    2.0     6      5.1   923.2    0.00     895    79.6
 128   10:30   87.3    13    3.5   289      7.4   923.2    0.00     908    80.2
 128   10:40   87.2    13    3.1   310      8.0   923.2    0.00     921    80.7
 128   10:50   88.5    13    2.8   327      6.4   923.2    0.00     931    81.4
 128   11:00   89.4    12    3.5   324      9.0   923.1    0.00     942    82.0
 128   11:10   89.3    12    3.8   279      7.7   923.1    0.00     951    82.5
 128   11:20   89.7    12    2.9   313      7.5   922.9    0.00     958    83.0
 128   11:30   90.7    11    2.9   330      7.3   922.9    0.00     963    83.5
 128   11:40   91.1    11    4.4   291      8.2   922.8    0.00     966    83.8
 128   11:50   91.1    11    3.7   300      8.0   922.7    0.00     968    84.2
 128   12:00   91.7    11    3.1   321      7.0   922.7    0.00     969    84.5
 128   12:10   91.9    11    4.0   299      8.0   922.6    0.00     966    84.8
 128   12:20   93.4    11    2.2   258      8.8   922.6    0.00     962    85.1
 128   12:30   92.8    11    3.2   264      6.6   922.5    0.00     956    85.5
 128   12:40   93.7    10    4.7   317      9.9   922.4    0.00     950    85.8
 128   12:50   94.0    10    5.3   320      9.6   922.4    0.00     941    86.2
 128   13:00   94.3    10    2.4   284      7.6   922.4    0.00     932    86.6
 128   13:10   93.3    11    5.6   294     11.3   922.3    0.00     922    86.9
 128   13:20   94.1    10    4.3   306     11.0   922.2    0.00     905    87.3
 128   13:30   95.5    10    3.8   318      9.3   922.0    0.00     890    87.6
 128   13:40   95.2    10    3.0   279      7.7   921.9    0.00     863    87.9
 128   13:50   95.1    10    0.1   283      0.5   921.9    0.00     837    88.1
 128   14:00   96.3     9    0.1   247      2.3   921.7    0.00     827    88.1
 128   14:10   95.7     9    0.0   352      0.1   921.4    0.00     806    88.0
 128   14:20   96.0     9    0.1   323      0.1   921.2    0.00     774    87.9
 128   14:30   95.8    10    0.1   355      0.1   921.1    0.00     763    87.8
 128   14:40   96.0    10    1.1   355      9.1   921.0    0.00     742    87.6
 128   14:50   95.2    10    0.1   355      0.1   920.9    0.00     716    87.5
 128   15:00   95.3     9    0.1   325      0.1   920.7    0.00     691    87.3
 128   15:10   95.8    10    0.1   266      0.1   920.5    0.00     662    87.3
 128   15:20   96.2     9    0.1   295      0.1   920.4    0.00     631    87.3
 128   15:30   95.3    10    0.1   253      0.1   920.3    0.00     601    87.5
 128   15:40   95.0    10    0.1   264      0.1   920.2    0.00     574    87.7
 128   15:50   94.9    10    0.1   249      0.1   920.1    0.00     543    88.0
 128   16:00   95.1    10    0.1   244      0.1   920.0    0.00     510    88.3
 128   16:10   94.9     9    0.1   295      0.1   920.0    0.00     478    88.6
 128   16:20   95.8    10    0.1   236      0.1   919.9    0.00     443    88.8
 128   16:30   94.9    10    0.1   245      0.1   919.9    0.00     409    89.0
 128   16:40   94.7    11    0.1   243      0.1   919.9    0.00     374    89.2
 128   16:50   94.5    10    0.1   229      0.1   919.7    0.00     342    89.4
 128   17:00   95.1    10    0.1   209      0.1   919.6    0.00     307    89.6
 128   17:10   94.4    10    0.1   202      0.1   919.5    0.00     273    89.7
 128   17:20   93.7    11    0.1   212      0.1   919.4    0.00     240    89.7
 128   17:30   92.8    11    0.1   224      0.1   919.3    0.00     207    89.7
 128   17:40   93.2    10    0.1   256      0.1   919.2    0.00     173    89.7
 128   17:50   93.2    11    0.1   237      0.1   919.0    0.00     143    89.7
 128   18:00   93.0    10    0.0   188      0.1   919.0    0.00     117    89.6

Return to Pahrump, Nevada graphs page.


Western Regional Climate Center,wrcc@dri.edu